Time;durP1;ratioP1;P1;durP2;ratioP2;P2;SDS_P1;SDS_P2;PMS_P1;PMS_P2;Temp;Humidity;BMP_temperature;BMP_pressure;BME280_temperature;BME280_humidity;BME280_pressure;Samples;Min_cycle;Max_cycle;Signal;HPM_P1;HPM_P2
2022/07/11 00:02:06;;;;;;;1.30;0.60;;;;;;;17.01;57.86;101175.25;4875894;29;20059;-74
2022/07/11 00:04:32;;;;;;;0.75;0.65;;;;;;;17.06;57.95;101177.97;4898053;29;20033;-72
2022/07/11 00:07:03;;;;;;;0.50;0.50;;;;;;;17.06;57.87;101177.97;4904523;29;20025;-74
2022/07/11 00:09:29;;;;;;;0.30;0.30;;;;;;;16.98;58.15;101170.31;4884121;29;20177;-74
2022/07/11 00:11:55;;;;;;;0.55;0.40;;;;;;;17.03;57.98;101178.56;4901512;29;20725;-73
2022/07/11 00:14:21;;;;;;;1.13;0.32;;;;;;;17.06;58.12;101175.22;4898677;29;20388;-73
2022/07/11 00:16:48;;;;;;;0.70;0.50;;;;;;;17.04;58.05;101180.19;4884028;29;20081;-75
2022/07/11 00:19:13;;;;;;;0.43;0.40;;;;;;;17.04;58.12;101180.19;4881910;29;20041;-74
2022/07/11 00:21:39;;;;;;;0.30;0.30;;;;;;;17.05;57.58;101181.84;4881481;29;20029;-73
2022/07/11 00:24:06;;;;;;;0.65;0.43;;;;;;;17.05;57.81;101181.84;4880768;29;20503;-73
2022/07/11 00:26:31;;;;;;;0.40;0.38;;;;;;;17.05;58.01;101181.84;4870254;29;20478;-72
2022/07/11 00:28:57;;;;;;;0.68;0.50;;;;;;;17.04;57.82;101182.94;4882476;29;20127;-73
2022/07/11 00:31:22;;;;;;;0.90;0.70;;;;;;;17.05;57.94;101179.09;4879916;29;20056;-73
2022/07/11 00:33:49;;;;;;;1.40;0.65;;;;;;;17.03;58.00;101175.81;4874029;29;20046;-74
2022/07/11 00:36:14;;;;;;;0.43;0.40;;;;;;;17.01;58.57;101172.50;4878308;29;20032;-72
2022/07/11 00:38:40;;;;;;;0.40;0.40;;;;;;;16.98;58.16;101171.16;4880784;29;20025;-73
2022/07/11 00:41:06;;;;;;;0.77;0.45;;;;;;;16.99;57.95;101166.44;4881067;29;20180;-73
2022/07/11 00:43:32;;;;;;;0.40;0.40;;;;;;;17.00;57.65;101173.63;4886391;29;20052;-74
2022/07/11 00:45:58;;;;;;;0.40;0.40;;;;;;;17.01;58.10;101169.72;4880802;29;20025;-73
2022/07/11 00:48:24;;;;;;;0.30;0.30;;;;;;;17.03;58.24;101167.50;4887655;29;20049;-73
2022/07/11 00:50:49;;;;;;;0.45;0.43;;;;;;;16.99;58.23;101155.41;4877329;29;20048;-73
2022/07/11 00:53:16;;;;;;;0.75;0.73;;;;;;;16.98;58.61;101170.31;4876213;29;20044;-72
2022/07/11 00:55:41;;;;;;;1.45;0.70;;;;;;;16.91;59.02;101165.97;4850270;29;20037;-72
2022/07/11 00:58:07;;;;;;;0.52;0.52;;;;;;;16.91;59.06;101171.47;4880577;29;20029;-73
2022/07/11 01:00:33;;;;;;;3.28;0.88;;;;;;;16.85;59.31;101172.63;4864438;29;20032;-73
2022/07/11 01:02:58;;;;;;;1.05;0.82;;;;;;;16.83;59.64;101179.53;4879433;29;20040;-74
2022/07/11 01:05:24;;;;;;;0.75;0.70;;;;;;;16.76;59.45;101177.09;4877108;29;20037;-73
2022/07/11 01:07:49;;;;;;;1.20;0.73;;;;;;;16.71;60.02;101174.41;4875819;29;20030;-73
2022/07/11 01:10:15;;;;;;;1.02;0.50;;;;;;;16.66;60.20;101163.38;4891337;29;20025;-74
2022/07/11 01:12:40;;;;;;;1.77;0.88;;;;;;;16.59;60.43;101166.50;4878738;29;20044;-72
2022/07/11 01:15:07;;;;;;;1.70;0.80;;;;;;;16.55;60.55;101169.00;4864818;29;20059;-75
2022/07/11 01:17:33;;;;;;;1.63;0.70;;;;;;;16.50;60.83;101160.75;4884862;29;20025;-73
2022/07/11 01:20:00;;;;;;;4.38;0.50;;;;;;;16.44;60.76;101156.41;4889024;29;20488;-74
2022/07/11 01:22:28;;;;;;;0.80;0.70;;;;;;;16.37;60.71;101153.94;4866879;29;20051;-73
2022/07/11 01:24:54;;;;;;;1.83;0.80;;;;;;;16.35;61.41;101161.72;4890011;29;20159;-74
2022/07/11 01:27:22;;;;;;;4.10;0.95;;;;;;;16.30;61.64;101166.44;4898821;29;20025;-73
2022/07/11 01:29:47;;;;;;;2.05;0.73;;;;;;;16.28;61.44;101163.13;4864865;29;20149;-72
2022/07/11 01:32:13;;;;;;;1.20;0.70;;;;;;;16.27;61.59;101165.06;4883424;29;20036;-74
2022/07/11 01:34:38;;;;;;;0.70;0.50;;;;;;;16.31;61.34;101174.44;4900439;29;20043;-73
2022/07/11 01:37:04;;;;;;;0.40;0.40;;;;;;;16.34;61.33;101170.25;4903717;29;20111;-73
2022/07/11 01:39:29;;;;;;;0.40;0.38;;;;;;;16.32;61.23;101159.50;4871870;29;20033;-73
2022/07/11 01:41:58;;;;;;;0.30;0.30;;;;;;;16.37;61.22;101162.22;4882574;29;20052;-73
2022/07/11 01:44:24;;;;;;;0.98;0.50;;;;;;;16.35;61.26;101164.47;4883284;29;20108;-73
2022/07/11 01:46:49;;;;;;;0.65;0.65;;;;;;;16.31;61.21;101157.03;4900681;29;20455;-73
2022/07/11 01:49:15;;;;;;;1.13;1.00;;;;;;;16.23;61.81;101162.03;4883347;29;20097;-74
2022/07/11 01:51:41;;;;;;;0.77;0.70;;;;;;;16.15;62.18;101165.41;4885209;29;20120;-74
2022/07/11 01:54:07;;;;;;;2.28;0.95;;;;;;;16.05;62.43;101165.50;4891258;29;20036;-72
2022/07/11 01:56:33;;;;;;;1.70;1.02;;;;;;;16.00;62.95;101159.97;4876056;29;20103;-73
2022/07/11 01:58:59;;;;;;;1.08;0.70;;;;;;;15.98;62.92;101160.28;4899114;29;20409;-73
2022/07/11 02:01:24;;;;;;;3.92;0.95;;;;;;;15.97;62.90;101157.81;4883701;29;20052;-73
2022/07/11 02:03:50;;;;;;;0.55;0.47;;;;;;;15.91;63.16;101150.66;4867101;29;20039;-74
2022/07/11 02:06:16;;;;;;;1.38;0.60;;;;;;;15.91;63.26;101156.19;4868049;29;20037;-74
2022/07/11 02:08:41;;;;;;;0.70;0.57;;;;;;;15.91;63.00;101158.94;4899677;29;20107;-73
2022/07/11 02:11:07;;;;;;;0.85;0.50;;;;;;;15.87;63.20;101158.66;4869333;29;20045;-74
2022/07/11 02:13:33;;;;;;;0.60;0.50;;;;;;;15.85;63.40;101153.44;4896936;29;20036;-74
2022/07/11 02:15:58;;;;;;;2.88;0.73;;;;;;;15.84;63.71;101162.84;4900327;29;20059;-74
2022/07/11 02:18:24;;;;;;;0.93;0.73;;;;;;;15.78;63.78;101150.16;4897075;29;20033;-73
2022/07/11 02:20:49;;;;;;;0.50;0.50;;;;;;;15.76;64.07;101152.34;4858551;29;20036;-75
2022/07/11 02:23:24;;;;;;;0.75;0.70;;;;;;;15.73;63.73;101152.94;4889192;29;20037;-74
2022/07/11 02:25:55;;;;;;;0.32;0.32;;;;;;;15.76;63.77;101152.34;4881460;29;20029;-71
2022/07/11 02:28:20;;;;;;;0.52;0.52;;;;;;;15.76;63.45;101149.59;4898214;29;20035;-73
2022/07/11 02:30:45;;;;;;;0.77;0.50;;;;;;;15.76;63.59;101155.13;4902737;29;20036;-72
2022/07/11 02:33:15;;;;;;;0.50;0.50;;;;;;;15.76;63.64;101160.63;4897631;29;20033;-73
2022/07/11 02:35:45;;;;;;;0.40;0.40;;;;;;;15.75;63.48;101161.72;4883330;29;20083;-73
2022/07/11 02:38:10;;;;;;;0.40;0.40;;;;;;;15.73;63.95;101158.44;4891473;29;20468;-73
2022/07/11 02:40:37;;;;;;;0.80;0.60;;;;;;;15.71;63.86;101144.09;4900288;29;20040;-73
2022/07/11 02:43:02;;;;;;;0.68;0.50;;;;;;;15.68;64.23;101155.69;4865085;29;20113;-75
2022/07/11 02:45:28;;;;;;;0.60;0.47;;;;;;;15.66;64.39;101153.22;4877215;29;20076;-73
2022/07/11 02:47:53;;;;;;;1.15;0.70;;;;;;;15.64;64.43;101154.63;4873779;29;20499;-72
2022/07/11 02:50:18;;;;;;;1.80;0.52;;;;;;;15.61;64.62;101160.69;4895940;29;20105;-73
2022/07/11 02:52:44;;;;;;;0.68;0.40;;;;;;;15.58;64.74;101150.22;4898502;29;20071;-73
2022/07/11 02:55:11;;;;;;;0.80;0.38;;;;;;;15.53;64.56;101138.13;4875733;29;20028;-73
2022/07/11 02:57:38;;;;;;;0.55;0.55;;;;;;;15.54;64.60;101134.25;4899355;29;20039;-73
2022/07/11 03:00:05;;;;;;;0.50;0.50;;;;;;;15.54;64.52;101133.44;4907805;29;20032;-73
2022/07/11 03:02:31;;;;;;;0.30;0.30;;;;;;;15.53;64.75;101118.81;4885668;29;20071;-74
2022/07/11 03:04:57;;;;;;;0.40;0.38;;;;;;;15.52;64.59;101125.47;4871595;29;20077;-72
2022/07/11 03:07:27;;;;;;;0.85;0.55;;;;;;;15.49;64.73;101117.75;4881453;29;20064;-73
2022/07/11 03:09:56;;;;;;;0.75;0.60;;;;;;;15.46;65.06;101121.09;4884336;29;20035;-73
2022/07/11 03:12:22;;;;;;;1.30;0.82;;;;;;;15.45;65.31;101124.09;4900912;29;20503;-73
2022/07/11 03:14:48;;;;;;;0.63;0.60;;;;;;;15.44;65.19;101126.03;4890433;29;20028;-73
2022/07/11 03:17:14;;;;;;;1.00;0.73;;;;;;;15.39;64.79;101123.31;4898800;29;20037;-73
2022/07/11 03:19:39;;;;;;;1.15;0.77;;;;;;;15.37;65.48;101122.75;4889012;29;20033;-73
2022/07/11 03:22:05;;;;;;;0.93;0.65;;;;;;;15.33;65.68;101121.66;4889843;29;20029;-73
2022/07/11 03:24:30;;;;;;;0.40;0.40;;;;;;;15.34;65.25;101118.63;4887601;29;20025;-73
2022/07/11 03:26:56;;;;;;;0.55;0.55;;;;;;;15.39;65.00;101125.22;4883327;29;20763;-73
2022/07/11 03:29:21;;;;;;;0.55;0.50;;;;;;;15.41;65.56;101123.84;4876586;29;20080;-73
2022/07/11 03:31:47;;;;;;;0.45;0.40;;;;;;;15.39;65.44;101120.56;4898321;29;20028;-73
2022/07/11 03:34:12;;;;;;;1.02;0.60;;;;;;;15.43;64.88;101127.13;4901688;29;20365;-73
2022/07/11 03:36:38;;;;;;;0.50;0.50;;;;;;;15.43;65.60;101121.63;4858099;29;20043;-74
2022/07/11 03:39:03;;;;;;;1.33;0.63;;;;;;;15.39;65.52;101117.81;4904143;29;20059;-73
2022/07/11 03:41:29;;;;;;;0.50;0.38;;;;;;;15.41;65.63;101118.34;4903870;29;20476;-72
2022/07/11 03:43:55;;;;;;;1.83;0.50;;;;;;;15.41;65.47;101123.03;4868365;29;20040;-73
2022/07/11 03:46:21;;;;;;;0.45;0.45;;;;;;;15.38;65.38;101121.66;4907528;29;20095;-74
2022/07/11 03:48:46;;;;;;;0.57;0.40;;;;;;;15.30;65.70;101105.69;4886833;29;20544;-74
2022/07/11 03:51:12;;;;;;;0.45;0.45;;;;;;;15.36;65.50;101118.34;4901534;29;20036;-73
2022/07/11 03:53:37;;;;;;;0.50;0.50;;;;;;;15.35;65.58;101113.94;4901056;29;20037;-73
2022/07/11 03:56:03;;;;;;;0.40;0.40;;;;;;;15.33;65.91;101105.13;4867479;29;20124;-73
2022/07/11 03:58:28;;;;;;;0.63;0.45;;;;;;;15.33;65.77;101105.13;4897551;29;20425;-73
2022/07/11 04:00:54;;;;;;;0.57;0.50;;;;;;;15.33;65.69;101102.38;4882661;29;20032;-72
2022/07/11 04:03:19;;;;;;;0.28;0.25;;;;;;;15.31;65.60;101099.09;4885137;29;20040;-73
2022/07/11 04:05:45;;;;;;;0.40;0.40;;;;;;;15.31;65.79;101096.34;4885736;29;20457;-72
2022/07/11 04:08:10;;;;;;;0.47;0.40;;;;;;;15.29;65.77;101098.56;4877530;29;20025;-73
2022/07/11 04:10:35;;;;;;;0.40;0.40;;;;;;;15.32;65.79;101098.81;4900516;29;21236;-73
2022/07/11 04:13:01;;;;;;;0.30;0.30;;;;;;;15.29;65.73;101091.09;4900946;29;20127;-72
2022/07/11 04:15:26;;;;;;;0.40;0.40;;;;;;;15.28;65.85;101096.91;4883605;29;20055;-72
2022/07/11 04:17:52;;;;;;;0.40;0.40;;;;;;;15.27;65.73;101100.75;4884652;29;20088;-72
2022/07/11 04:20:17;;;;;;;0.40;0.40;;;;;;;15.25;65.99;101091.94;4899599;29;20037;-70
2022/07/11 04:22:43;;;;;;;0.40;0.40;;;;;;;15.24;65.79;101084.78;4877341;29;20107;-72
2022/07/11 04:25:08;;;;;;;0.35;0.35;;;;;;;15.31;65.43;101094.38;4899822;29;20028;-72
2022/07/11 04:27:34;;;;;;;0.28;0.28;;;;;;;15.44;65.70;101094.91;4883455;29;20048;-73
2022/07/11 04:29:59;;;;;;;0.38;0.38;;;;;;;15.47;65.28;101089.63;4885977;29;20033;-72
2022/07/11 04:32:25;;;;;;;0.43;0.43;;;;;;;15.51;65.29;101082.47;4868671;29;20028;-73
2022/07/11 04:34:50;;;;;;;0.50;0.20;;;;;;;15.52;64.92;101081.34;4894523;29;20038;-71
2022/07/11 04:37:15;;;;;;;0.40;0.30;;;;;;;15.52;64.92;101092.38;4868116;29;20136;-73
2022/07/11 04:39:41;;;;;;;0.47;0.45;;;;;;;15.51;64.62;101085.22;4884516;29;20039;-72
2022/07/11 04:42:06;;;;;;;0.40;0.40;;;;;;;15.50;64.82;101088.25;4875791;29;20051;-72
2022/07/11 04:44:33;;;;;;;0.32;0.32;;;;;;;15.51;64.58;101101.75;4885517;29;20679;-72
2022/07/11 04:46:58;;;;;;;0.63;0.40;;;;;;;15.48;64.77;101088.53;4915156;29;20023;-73
2022/07/11 04:49:24;;;;;;;0.50;0.50;;;;;;;15.49;64.54;101081.09;4897933;29;20349;-72
2022/07/11 04:51:50;;;;;;;0.90;0.70;;;;;;;15.47;64.87;101084.13;4887756;29;20040;-71
2022/07/11 04:54:34;;;;;;;;;;;;;;;;;;;;;
2022/07/11 04:57:00;;;;;;;1.13;0.90;;;;;;;15.28;65.73;101080.38;4871625;29;20035;-71
2022/07/11 04:59:26;;;;;;;1.35;0.82;;;;;;;15.31;66.01;101090.81;4884777;29;20119;-71
2022/07/11 05:01:51;;;;;;;4.20;1.30;;;;;;;15.32;66.40;101093.28;4885200;29;20061;-73
2022/07/11 05:04:17;;;;;;;2.78;1.00;;;;;;;15.28;66.40;101089.44;4888658;29;20036;-73
2022/07/11 05:06:42;;;;;;;0.88;0.88;;;;;;;15.27;66.42;101096.06;4885355;29;20036;-72
2022/07/11 05:09:10;;;;;;;0.88;0.70;;;;;;;15.37;66.26;101100.72;4901191;29;20127;-73
2022/07/11 05:11:36;;;;;;;1.13;0.77;;;;;;;15.47;65.65;101105.38;4892119;29;20040;-73
2022/07/11 05:14:01;;;;;;;0.40;0.40;;;;;;;15.59;65.42;101116.06;4897537;29;20036;-73
2022/07/11 05:16:27;;;;;;;0.65;0.47;;;;;;;15.69;64.94;101118.75;4895935;29;20053;-73
2022/07/11 05:18:53;;;;;;;0.35;0.35;;;;;;;15.82;64.99;101126.44;4899538;29;20140;-73
2022/07/11 05:21:22;;;;;;;1.70;0.50;;;;;;;15.96;64.71;101125.81;4878988;29;20100;-72
2022/07/11 05:24:10;;;;;;;1.13;0.60;;;;;;;16.11;64.38;101117.44;4906015;29;20103;-73
2022/07/11 05:26:36;;;;;;;1.13;0.50;;;;;;;16.20;64.13;101112.94;4896797;29;20039;-73
2022/07/11 05:29:01;;;;;;;0.30;0.30;;;;;;;16.31;64.21;101107.34;4899958;29;20029;-73
2022/07/11 05:31:27;;;;;;;0.40;0.40;;;;;;;16.40;63.94;101111.97;4898904;29;20076;-73
2022/07/11 05:33:53;;;;;;;0.45;0.40;;;;;;;16.46;63.88;101115.50;4903063;29;20142;-73
2022/07/11 05:36:18;;;;;;;0.40;0.40;;;;;;;16.60;63.63;101115.66;4902194;29;20040;-74
2022/07/11 05:38:43;;;;;;;0.30;0.30;;;;;;;16.72;63.53;101118.06;4899159;29;20064;-74
2022/07/11 05:41:09;;;;;;;0.50;0.40;;;;;;;16.83;63.14;101122.34;4900194;29;20037;-74
2022/07/11 05:43:35;;;;;;;0.63;0.60;;;;;;;16.91;62.86;101127.28;4892869;29;20397;-74
2022/07/11 05:46:04;;;;;;;0.50;0.50;;;;;;;17.01;62.72;101125.53;4863085;29;20502;-74
2022/07/11 05:48:29;;;;;;;0.70;0.70;;;;;;;17.06;62.78;101126.28;4895494;29;20029;-75
2022/07/11 05:50:54;;;;;;;0.60;0.60;;;;;;;17.12;62.42;101132.59;4883693;29;20059;-74
2022/07/11 05:53:20;;;;;;;0.30;0.30;;;;;;;17.18;62.48;101141.66;4896383;29;20571;-74
2022/07/11 05:55:45;;;;;;;0.50;0.50;;;;;;;17.21;62.13;101139.13;4904472;29;20024;-74
2022/07/11 05:58:11;;;;;;;1.02;0.60;;;;;;;17.36;62.14;101148.34;4898164;29;20040;-74
2022/07/11 06:00:36;;;;;;;0.75;0.63;;;;;;;17.41;61.72;101156.59;4902392;29;20088;-73
2022/07/11 06:03:02;;;;;;;0.77;0.40;;;;;;;17.44;61.64;101142.19;4898884;29;20040;-74
2022/07/11 06:05:27;;;;;;;0.75;0.63;;;;;;;17.60;61.49;101154.69;4896721;29;20088;-73
2022/07/11 06:10:39;;;;;;;0.55;0.40;;;;;;;17.83;61.36;101152.19;4894438;29;20046;-75
2022/07/11 06:13:04;;;;;;;0.73;0.57;;;;;;;17.99;60.90;101161.16;4865530;29;20100;-74
2022/07/11 06:15:29;;;;;;;2.13;0.57;;;;;;;18.24;61.02;101171.03;4894030;29;20056;-73
2022/07/11 06:17:55;;;;;;;0.93;0.63;;;;;;;18.37;60.20;101165.84;4883931;29;20075;-72
2022/07/11 06:20:20;;;;;;;1.73;0.77;;;;;;;18.45;59.81;101167.94;4895217;29;20049;-73
2022/07/11 06:22:46;;;;;;;0.70;0.55;;;;;;;18.47;59.65;101171.22;4879812;29;20467;-74
2022/07/11 06:25:12;;;;;;;0.88;0.60;;;;;;;18.43;60.01;101164.66;4876385;29;20052;-74
2022/07/11 06:27:37;;;;;;;4.88;1.13;;;;;;;18.51;59.58;101174.22;4853118;29;20056;-73
2022/07/11 06:30:03;;;;;;;1.30;0.50;;;;;;;18.53;59.82;101175.56;4898581;29;20072;-73
2022/07/11 06:32:31;;;;;;;2.38;0.60;;;;;;;18.63;60.02;101180.94;4883712;29;20032;-73
2022/07/11 06:34:56;;;;;;;0.50;0.43;;;;;;;18.88;58.79;101184.44;4867502;29;20036;-72
2022/07/11 06:37:21;;;;;;;0.82;0.50;;;;;;;19.05;58.93;101191.34;4887402;29;20033;-72
2022/07/11 06:39:47;;;;;;;0.43;0.40;;;;;;;19.17;57.77;101189.72;4867767;29;20037;-73
2022/07/11 06:42:12;;;;;;;0.68;0.43;;;;;;;19.36;57.82;101194.34;4896902;29;20032;-73
2022/07/11 06:44:38;;;;;;;0.50;0.35;;;;;;;19.57;57.47;101191.19;4896307;29;20040;-73
2022/07/11 06:47:05;;;;;;;0.43;0.25;;;;;;;19.76;57.28;101196.63;4879116;29;20168;-73
2022/07/11 06:49:30;;;;;;;0.30;0.30;;;;;;;19.87;56.75;101195.28;4900085;29;20032;-76
2022/07/11 06:51:56;;;;;;;1.08;0.60;;;;;;;19.93;56.82;101188.53;4865754;29;20065;-74
2022/07/11 06:54:21;;;;;;;1.70;0.60;;;;;;;20.02;56.40;101192.19;4896771;29;20033;-74
2022/07/11 06:56:46;;;;;;;0.60;0.60;;;;;;;20.07;56.63;101184.91;4863655;29;20115;-72
2022/07/11 06:59:12;;;;;;;0.70;0.50;;;;;;;20.14;56.64;101188.06;4881216;29;20039;-72
2022/07/11 07:01:37;;;;;;;0.63;0.63;;;;;;;20.27;56.56;101192.75;4879680;29;20040;-73
2022/07/11 07:04:03;;;;;;;1.15;0.63;;;;;;;20.39;56.11;101189.44;4891400;29;20041;-72
2022/07/11 07:06:31;;;;;;;1.00;0.70;;;;;;;20.33;56.16;101185.13;4872503;29;20033;-73
2022/07/11 07:08:56;;;;;;;2.83;1.17;;;;;;;20.25;55.90;101186.69;4865719;29;20037;-73
2022/07/11 07:11:23;;;;;;;0.60;0.60;;;;;;;20.38;55.96;101199.72;4877697;29;20064;-72
2022/07/11 07:13:50;;;;;;;0.88;0.57;;;;;;;20.52;56.14;101193.28;4868281;29;20028;-72
2022/07/11 07:16:16;;;;;;;1.48;0.52;;;;;;;20.75;55.73;101208.84;4862393;29;20049;-72
2022/07/11 07:18:43;;;;;;;0.30;0.30;;;;;;;20.97;55.04;101204.44;4877418;29;20036;-72
2022/07/11 07:21:08;;;;;;;0.70;0.70;;;;;;;21.07;54.71;101198.59;4883548;29;20457;-71
2022/07/11 07:23:34;;;;;;;2.65;0.63;;;;;;;20.99;53.84;101202.13;4864155;29;20033;-72
2022/07/11 07:25:59;;;;;;;1.10;0.70;;;;;;;20.90;53.22;101202.09;4883659;29;20033;-72
2022/07/11 07:28:28;;;;;;;1.25;0.85;;;;;;;20.83;53.32;101206.47;4879576;29;20029;-72
2022/07/11 07:30:53;;;;;;;0.98;0.60;;;;;;;20.85;53.14;101206.94;4861753;29;20081;-72
2022/07/11 07:33:19;;;;;;;2.08;1.02;;;;;;;20.87;52.78;101204.69;4863242;29;20128;-75
2022/07/11 07:35:44;;;;;;;1.88;1.25;;;;;;;20.96;52.37;101202.78;4883230;29;20381;-73
2022/07/11 07:38:10;;;;;;;1.02;0.93;;;;;;;21.08;51.59;101200.25;4879817;29;20065;-74
2022/07/11 07:40:35;;;;;;;0.88;0.73;;;;;;;21.10;49.77;101202.72;4869077;29;20048;-73
2022/07/11 07:43:01;;;;;;;1.17;0.70;;;;;;;21.08;49.81;101208.59;4878059;29;20128;-76
2022/07/11 07:45:26;;;;;;;2.50;1.00;;;;;;;21.13;49.99;101212.34;4875962;29;20450;-74
2022/07/11 07:47:52;;;;;;;1.38;0.90;;;;;;;21.14;49.39;101214.00;4883475;29;20052;-75
2022/07/11 07:50:17;;;;;;;1.80;0.80;;;;;;;21.20;49.45;101212.72;4866093;29;20485;-72
2022/07/11 07:52:43;;;;;;;0.93;0.70;;;;;;;21.26;49.16;101217.00;4879190;29;20037;-76
2022/07/11 07:55:08;;;;;;;1.10;0.70;;;;;;;21.28;49.18;101215.53;4879985;29;20116;-72
2022/07/11 07:57:34;;;;;;;0.82;0.80;;;;;;;21.33;49.22;101206.22;4881710;29;20041;-74
2022/07/11 08:02:43;;;;;;;4.22;0.90;;;;;;;21.59;49.36;101208.34;4880348;29;20036;-75
2022/07/11 08:05:09;;;;;;;2.22;0.88;;;;;;;21.77;49.07;101204.47;4863240;29;20046;-73
2022/07/11 08:07:35;;;;;;;2.35;0.75;;;;;;;21.97;48.68;101205.00;4880288;29;20021;-74
2022/07/11 08:10:04;;;;;;;0.90;0.57;;;;;;;22.11;48.79;101202.91;4880148;29;20040;-73
2022/07/11 08:12:29;;;;;;;0.82;0.60;;;;;;;22.25;48.30;101207.50;4879720;29;20400;-73
2022/07/11 08:14:55;;;;;;;5.57;1.02;;;;;;;22.30;47.64;101199.00;4882252;29;20135;-73
2022/07/11 08:17:20;;;;;;;1.30;0.90;;;;;;;22.39;47.62;101208.19;4880108;29;20042;-74
2022/07/11 08:19:46;;;;;;;4.22;0.98;;;;;;;22.40;47.76;101203.44;4900814;29;20044;-72
2022/07/11 08:22:11;;;;;;;1.10;0.70;;;;;;;22.51;47.69;101203.94;4883752;29;20136;-72
2022/07/11 08:24:37;;;;;;;1.02;0.70;;;;;;;22.61;47.59;101201.63;4884297;29;20433;-71
2022/07/11 08:27:03;;;;;;;1.25;0.68;;;;;;;22.71;47.50;101200.47;4882489;29;20028;-74
2022/07/11 08:29:28;;;;;;;1.10;0.70;;;;;;;22.82;46.25;101199.00;4885459;29;20029;-74
2022/07/11 08:31:54;;;;;;;1.20;0.57;;;;;;;22.94;47.03;101206.69;4851726;29;20028;-74
2022/07/11 08:34:19;;;;;;;1.30;0.75;;;;;;;23.10;46.38;101192.19;4869728;29;20498;-73
2022/07/11 08:36:44;;;;;;;0.93;0.60;;;;;;;23.23;45.83;101187.59;4898979;29;20028;-73
2022/07/11 08:39:10;;;;;;;0.70;0.60;;;;;;;23.29;45.59;101189.88;4902540;29;20068;-73
2022/07/11 08:41:42;;;;;;;2.80;0.65;;;;;;;23.41;45.19;101180.78;4870006;29;20029;-74
2022/07/11 08:44:08;;;;;;;2.90;0.73;;;;;;;23.46;45.12;101191.75;4896517;29;20036;-75
2022/07/11 08:46:33;;;;;;;2.92;0.85;;;;;;;23.39;45.16;101185.88;4884910;29;20476;-76
2022/07/11 08:48:59;;;;;;;1.65;0.90;;;;;;;23.49;45.18;101185.50;4902935;29;20025;-73
2022/07/11 08:51:27;;;;;;;2.15;0.70;;;;;;;23.57;44.86;101185.78;4902050;29;20017;-73
2022/07/11 08:53:52;;;;;;;2.45;1.30;;;;;;;23.65;44.42;101182.16;4882229;29;20127;-74
2022/07/11 08:56:20;;;;;;;1.70;0.68;;;;;;;23.79;44.20;101191.09;4899732;29;20096;-74
2022/07/11 08:58:47;;;;;;;2.20;0.95;;;;;;;23.93;44.24;101185.28;4882617;29;20028;-74
2022/07/11 09:01:17;;;;;;;1.70;0.75;;;;;;;24.03;44.38;101184.06;4888914;29;20037;-73
2022/07/11 09:03:43;;;;;;;1.13;0.60;;;;;;;24.25;44.43;101179.31;4904687;29;20056;-74
2022/07/11 09:06:10;;;;;;;1.25;0.60;;;;;;;24.38;43.48;101178.22;4881770;29;20526;-73
2022/07/11 09:08:36;;;;;;;3.45;0.80;;;;;;;24.39;43.47;101171.47;4885381;29;20028;-74
2022/07/11 09:11:04;;;;;;;0.68;0.60;;;;;;;24.42;42.54;101173.56;4870248;29;20753;-73
2022/07/11 09:13:30;;;;;;;1.60;0.75;;;;;;;24.42;43.49;101176.38;4903181;29;20421;-74
2022/07/11 09:16:05;;;;;;;1.95;0.70;;;;;;;24.50;42.53;101172.69;4899448;29;20049;-73
2022/07/11 09:18:31;;;;;;;1.48;0.70;;;;;;;24.43;42.97;101172.44;4902702;29;20054;-74
2022/07/11 09:26:34;;;;;;;4.78;0.70;;;;;;;24.75;42.64;101161.63;4899067;29;20039;-73
2022/07/11 09:29:05;;;;;;;2.60;0.75;;;;;;;24.92;42.23;101169.00;4866249;29;20021;-74
2022/07/11 09:31:33;;;;;;;3.15;0.80;;;;;;;24.89;42.04;101152.91;4886836;29;20088;-71
2022/07/11 09:34:04;;;;;;;3.40;0.80;;;;;;;24.97;41.78;101159.56;4881993;29;20021;-74
2022/07/11 09:36:40;;;;;;;0.50;0.50;;;;;;;25.20;42.41;101158.00;4899670;29;20028;-73
2022/07/11 09:39:07;;;;;;;1.00;0.50;;;;;;;25.38;42.11;101155.00;4882357;29;20031;-72
2022/07/11 09:41:35;;;;;;;2.65;0.90;;;;;;;25.57;41.62;101157.22;4903587;29;20037;-73
2022/07/11 09:44:11;;;;;;;2.40;0.95;;;;;;;25.66;40.94;101151.50;4899966;29;20150;-73
2022/07/11 09:46:37;;;;;;;1.13;0.73;;;;;;;25.68;41.09;101154.75;4885209;29;20028;-72
2022/07/11 09:49:03;;;;;;;1.15;0.60;;;;;;;25.73;40.62;101157.28;4883176;29;20362;-73
2022/07/11 09:51:31;;;;;;;2.28;0.75;;;;;;;25.78;40.29;101154.25;4883814;29;20020;-73
2022/07/11 09:53:58;;;;;;;2.33;0.70;;;;;;;25.91;40.04;101164.25;4888808;29;20028;-74
2022/07/11 09:56:32;;;;;;;1.13;0.63;;;;;;;25.94;40.02;101171.97;4872680;29;20032;-73
2022/07/11 09:58:59;;;;;;;1.08;0.60;;;;;;;25.98;40.21;101165.66;4896046;29;20032;-73
2022/07/11 10:01:26;;;;;;;2.03;0.70;;;;;;;26.33;39.73;101177.16;4880190;29;20033;-74
2022/07/11 10:03:52;;;;;;;1.75;0.82;;;;;;;26.43;38.97;101173.00;4879100;29;20056;-74
2022/07/11 10:06:17;;;;;;;2.08;1.05;;;;;;;26.67;37.90;101177.72;4878512;29;20077;-75
2022/07/11 10:08:43;;;;;;;1.52;0.77;;;;;;;27.46;37.01;101173.41;4877290;29;20146;-74
2022/07/11 10:11:10;;;;;;;1.55;0.90;;;;;;;29.04;34.26;101175.97;4868194;29;20032;-73
2022/07/11 10:13:36;;;;;;;1.58;0.70;;;;;;;30.60;31.94;101175.09;4882572;29;20760;-73
2022/07/11 10:16:08;;;;;;;1.02;0.70;;;;;;;31.50;29.95;101175.16;4883946;29;20063;-72
2022/07/11 10:18:40;;;;;;;2.58;0.70;;;;;;;32.59;28.82;101176.56;4897914;29;20032;-71
2022/07/11 10:21:17;;;;;;;2.03;0.88;;;;;;;32.83;28.28;101173.03;4908331;29;20024;-73
2022/07/11 10:23:57;;;;;;;2.42;0.70;;;;;;;33.79;26.64;101170.63;4896520;29;20095;-72
2022/07/11 10:26:52;;;;;;;1.63;0.70;;;;;;;34.07;25.99;101171.75;4895872;29;20029;-73
2022/07/11 10:29:25;;;;;;;2.30;0.75;;;;;;;34.54;25.96;101158.19;4896735;29;20025;-72
2022/07/11 10:32:08;;;;;;;2.55;0.63;;;;;;;35.10;25.13;101157.41;4894682;29;20055;-72
2022/07/11 10:34:34;;;;;;;0.98;0.60;;;;;;;35.91;24.75;101165.63;4878046;29;20047;-73
2022/07/11 10:37:05;;;;;;;1.90;0.90;;;;;;;35.51;23.58;101170.06;4895703;29;20392;-74
2022/07/11 10:39:37;;;;;;;0.63;0.55;;;;;;;35.20;24.35;101164.25;4892737;29;20029;-72
2022/07/11 10:42:05;;;;;;;1.15;0.60;;;;;;;36.19;23.62;101166.50;4897504;29;20032;-71
2022/07/11 10:44:50;;;;;;;0.32;0.30;;;;;;;37.34;23.49;101150.59;4909658;29;20058;-74
2022/07/11 10:47:41;;;;;;;0.30;0.30;;;;;;;38.55;22.80;101154.28;4894435;29;20044;-75
2022/07/11 10:50:38;;;;;;;0.77;0.65;;;;;;;38.97;21.47;101159.44;4892967;29;20024;-74
2022/07/11 10:53:09;;;;;;;1.27;0.50;;;;;;;39.14;20.09;101162.34;4887824;29;20033;-75
2022/07/11 10:55:46;;;;;;;0.85;0.50;;;;;;;39.24;20.01;101155.53;4897527;29;20029;-76
2022/07/11 10:58:31;;;;;;;0.80;0.40;;;;;;;39.14;19.26;101153.75;4895687;29;20504;-74
2022/07/11 11:01:11;;;;;;;0.30;0.30;;;;;;;38.50;19.87;101163.38;4899702;29;20047;-73
2022/07/11 11:03:38;;;;;;;1.23;0.77;;;;;;;38.11;19.68;101147.09;4896558;29;20099;-74
2022/07/11 11:06:04;;;;;;;0.60;0.50;;;;;;;37.76;20.22;101155.13;4899694;29;20052;-74
2022/07/11 11:08:35;;;;;;;0.75;0.50;;;;;;;37.11;20.79;101144.88;4896468;29;20056;-72
2022/07/11 11:11:19;;;;;;;1.80;0.90;;;;;;;35.90;21.74;101146.13;4893578;29;20999;-74
2022/07/11 11:13:45;;;;;;;;;;;;;;;34.73;23.41;101158.88;4893545;29;20016;-74
2022/07/11 11:16:24;;;;;;;1.58;0.50;;;;;;;33.51;24.61;101141.09;4892865;29;19931;-74
2022/07/11 11:18:50;;;;;;;1.25;0.50;;;;;;;33.17;25.30;101143.50;4892401;29;20408;-75
2022/07/11 11:21:17;;;;;;;0.40;0.40;;;;;;;32.65;26.34;101135.31;4899776;29;20032;-74
2022/07/11 11:23:44;;;;;;;0.50;0.45;;;;;;;32.46;26.89;101131.66;4894391;29;20115;-75
2022/07/11 11:26:16;;;;;;;0.73;0.50;;;;;;;32.24;26.84;101144.13;4895969;29;20459;-76
2022/07/11 11:28:55;;;;;;;2.97;0.63;;;;;;;32.09;28.28;101127.03;4876097;29;20028;-75
2022/07/11 11:31:20;;;;;;;1.30;0.45;;;;;;;32.29;27.36;101133.22;4889404;29;20096;-73
2022/07/11 11:33:47;;;;;;;1.48;0.63;;;;;;;32.54;26.88;101130.44;4896664;29;20136;-76
2022/07/11 11:36:16;;;;;;;3.97;0.60;;;;;;;32.89;26.34;101134.59;4896335;29;20555;-75
2022/07/11 11:38:44;;;;;;;1.48;0.77;;;;;;;33.77;24.80;101135.38;4898166;29;20033;-74